sensor_id;sensor_type;location;lat;lon;timestamp;P1;durP1;ratioP1;P2;durP2;ratioP2
22955;SDS011;40888;48.148;11.526;2024-02-04T00:00:08;4.20;;;3.80;;
22955;SDS011;40888;48.148;11.526;2024-02-04T00:02:35;4.47;;;4.07;;
22955;SDS011;40888;48.148;11.526;2024-02-04T00:05:03;4.20;;;3.80;;
22955;SDS011;40888;48.148;11.526;2024-02-04T00:07:29;4.87;;;4.33;;
22955;SDS011;40888;48.148;11.526;2024-02-04T00:09:55;4.60;;;4.20;;
22955;SDS011;40888;48.148;11.526;2024-02-04T00:12:21;4.07;;;3.77;;
22955;SDS011;40888;48.148;11.526;2024-02-04T00:14:47;4.67;;;4.27;;
22955;SDS011;40888;48.148;11.526;2024-02-04T00:17:16;4.23;;;3.93;;
22955;SDS011;40888;48.148;11.526;2024-02-04T00:19:42;4.97;;;4.00;;
22955;SDS011;40888;48.148;11.526;2024-02-04T00:22:09;4.30;;;4.00;;
22955;SDS011;40888;48.148;11.526;2024-02-04T00:24:35;4.57;;;4.17;;
22955;SDS011;40888;48.148;11.526;2024-02-04T00:27:01;4.70;;;4.30;;
22955;SDS011;40888;48.148;11.526;2024-02-04T00:29:27;5.13;;;4.53;;
22955;SDS011;40888;48.148;11.526;2024-02-04T00:31:53;4.27;;;3.97;;
22955;SDS011;40888;48.148;11.526;2024-02-04T00:34:19;4.07;;;3.77;;
22955;SDS011;40888;48.148;11.526;2024-02-04T00:36:45;4.57;;;4.00;;
22955;SDS011;40888;48.148;11.526;2024-02-04T00:39:12;4.23;;;3.83;;
22955;SDS011;40888;48.148;11.526;2024-02-04T00:41:38;4.20;;;3.80;;
22955;SDS011;40888;48.148;11.526;2024-02-04T00:44:04;4.70;;;4.30;;
22955;SDS011;40888;48.148;11.526;2024-02-04T00:46:30;4.60;;;4.20;;
22955;SDS011;40888;48.148;11.526;2024-02-04T00:48:56;4.80;;;4.40;;
22955;SDS011;40888;48.148;11.526;2024-02-04T00:51:22;5.00;;;4.50;;
22955;SDS011;40888;48.148;11.526;2024-02-04T00:53:48;5.10;;;4.53;;
22955;SDS011;40888;48.148;11.526;2024-02-04T00:56:14;4.90;;;4.50;;
22955;SDS011;40888;48.148;11.526;2024-02-04T00:58:40;4.77;;;4.37;;
22955;SDS011;40888;48.148;11.526;2024-02-04T01:01:06;5.60;;;5.13;;
22955;SDS011;40888;48.148;11.526;2024-02-04T01:03:32;5.57;;;5.07;;
22955;SDS011;40888;48.148;11.526;2024-02-04T01:05:58;6.37;;;5.77;;
22955;SDS011;40888;48.148;11.526;2024-02-04T01:08:25;7.53;;;5.70;;
22955;SDS011;40888;48.148;11.526;2024-02-04T01:10:51;6.30;;;5.77;;
22955;SDS011;40888;48.148;11.526;2024-02-04T01:13:17;6.67;;;6.07;;
22955;SDS011;40888;48.148;11.526;2024-02-04T01:15:44;7.00;;;6.40;;
22955;SDS011;40888;48.148;11.526;2024-02-04T01:18:10;7.30;;;6.70;;
22955;SDS011;40888;48.148;11.526;2024-02-04T01:20:36;6.90;;;6.30;;
22955;SDS011;40888;48.148;11.526;2024-02-04T01:23:02;6.70;;;6.10;;
22955;SDS011;40888;48.148;11.526;2024-02-04T01:25:28;6.03;;;5.53;;
22955;SDS011;40888;48.148;11.526;2024-02-04T01:27:54;7.13;;;6.50;;
22955;SDS011;40888;48.148;11.526;2024-02-04T01:30:20;7.13;;;6.50;;
22955;SDS011;40888;48.148;11.526;2024-02-04T01:32:46;6.77;;;6.17;;
22955;SDS011;40888;48.148;11.526;2024-02-04T01:35:12;5.90;;;5.40;;
22955;SDS011;40888;48.148;11.526;2024-02-04T01:37:40;6.37;;;5.87;;
22955;SDS011;40888;48.148;11.526;2024-02-04T01:40:08;6.40;;;5.80;;
22955;SDS011;40888;48.148;11.526;2024-02-04T01:42:34;6.53;;;5.93;;
22955;SDS011;40888;48.148;11.526;2024-02-04T01:45:00;6.07;;;5.47;;
22955;SDS011;40888;48.148;11.526;2024-02-04T01:47:27;6.67;;;6.07;;
22955;SDS011;40888;48.148;11.526;2024-02-04T01:49:53;6.17;;;5.60;;
22955;SDS011;40888;48.148;11.526;2024-02-04T01:52:19;6.73;;;6.13;;
22955;SDS011;40888;48.148;11.526;2024-02-04T01:54:45;6.53;;;5.90;;
22955;SDS011;40888;48.148;11.526;2024-02-04T01:57:12;6.20;;;5.60;;
22955;SDS011;40888;48.148;11.526;2024-02-04T01:59:39;5.77;;;5.27;;
22955;SDS011;40888;48.148;11.526;2024-02-04T02:02:05;6.17;;;5.67;;
22955;SDS011;40888;48.148;11.526;2024-02-04T02:04:31;6.37;;;5.77;;
22955;SDS011;40888;48.148;11.526;2024-02-04T02:06:57;6.53;;;5.87;;
22955;SDS011;40888;48.148;11.526;2024-02-04T02:09:27;6.40;;;5.80;;
22955;SDS011;40888;48.148;11.526;2024-02-04T02:12:00;5.53;;;5.03;;
22955;SDS011;40888;48.148;11.526;2024-02-04T02:14:28;6.00;;;5.50;;
22955;SDS011;40888;48.148;11.526;2024-02-04T02:16:57;5.83;;;5.33;;
22955;SDS011;40888;48.148;11.526;2024-02-04T02:24:41;6.20;;;5.57;;
22955;SDS011;40888;48.148;11.526;2024-02-04T02:27:08;5.70;;;5.20;;
22955;SDS011;40888;48.148;11.526;2024-02-04T02:29:34;5.97;;;5.37;;
22955;SDS011;40888;48.148;11.526;2024-02-04T02:32:01;5.33;;;4.90;;
22955;SDS011;40888;48.148;11.526;2024-02-04T02:34:28;6.63;;;5.20;;
22955;SDS011;40888;48.148;11.526;2024-02-04T02:36:56;6.23;;;5.50;;
22955;SDS011;40888;48.148;11.526;2024-02-04T02:39:24;5.07;;;4.67;;
22955;SDS011;40888;48.148;11.526;2024-02-04T02:41:51;5.73;;;5.13;;
22955;SDS011;40888;48.148;11.526;2024-02-04T02:44:21;5.00;;;4.60;;
22955;SDS011;40888;48.148;11.526;2024-02-04T02:46:48;5.23;;;4.73;;
22955;SDS011;40888;48.148;11.526;2024-02-04T02:49:15;5.63;;;5.13;;
22955;SDS011;40888;48.148;11.526;2024-02-04T02:51:41;5.57;;;5.07;;
22955;SDS011;40888;48.148;11.526;2024-02-04T02:54:07;5.03;;;4.53;;
22955;SDS011;40888;48.148;11.526;2024-02-04T02:56:33;4.80;;;4.40;;
22955;SDS011;40888;48.148;11.526;2024-02-04T02:58:59;5.27;;;4.67;;
22955;SDS011;40888;48.148;11.526;2024-02-04T03:01:25;4.93;;;4.53;;
22955;SDS011;40888;48.148;11.526;2024-02-04T03:03:51;4.57;;;4.17;;
22955;SDS011;40888;48.148;11.526;2024-02-04T03:06:17;4.80;;;4.40;;
22955;SDS011;40888;48.148;11.526;2024-02-04T03:08:43;5.13;;;4.63;;
22955;SDS011;40888;48.148;11.526;2024-02-04T03:11:09;4.67;;;4.27;;
22955;SDS011;40888;48.148;11.526;2024-02-04T03:13:37;4.50;;;4.10;;
22955;SDS011;40888;48.148;11.526;2024-02-04T03:16:04;5.23;;;4.10;;
22955;SDS011;40888;48.148;11.526;2024-02-04T03:18:30;4.27;;;3.90;;
22955;SDS011;40888;48.148;11.526;2024-02-04T03:20:57;3.97;;;3.67;;
22955;SDS011;40888;48.148;11.526;2024-02-04T03:23:23;4.03;;;3.57;;
22955;SDS011;40888;48.148;11.526;2024-02-04T03:25:49;4.23;;;3.87;;
22955;SDS011;40888;48.148;11.526;2024-02-04T03:28:15;4.40;;;3.97;;
22955;SDS011;40888;48.148;11.526;2024-02-04T03:30:41;4.20;;;3.80;;
22955;SDS011;40888;48.148;11.526;2024-02-04T03:33:07;5.70;;;4.13;;
22955;SDS011;40888;48.148;11.526;2024-02-04T03:35:33;4.70;;;4.20;;
22955;SDS011;40888;48.148;11.526;2024-02-04T03:38:02;4.80;;;4.40;;
22955;SDS011;40888;48.148;11.526;2024-02-04T03:40:28;4.70;;;4.17;;
22955;SDS011;40888;48.148;11.526;2024-02-04T03:42:54;4.93;;;4.43;;
22955;SDS011;40888;48.148;11.526;2024-02-04T03:45:20;5.10;;;4.60;;
22955;SDS011;40888;48.148;11.526;2024-02-04T03:47:46;4.97;;;4.57;;
22955;SDS011;40888;48.148;11.526;2024-02-04T03:50:12;4.20;;;3.80;;
22955;SDS011;40888;48.148;11.526;2024-02-04T03:52:38;4.53;;;4.13;;
22955;SDS011;40888;48.148;11.526;2024-02-04T03:55:05;4.67;;;4.23;;
22955;SDS011;40888;48.148;11.526;2024-02-04T03:57:32;4.53;;;4.13;;
22955;SDS011;40888;48.148;11.526;2024-02-04T03:59:58;3.67;;;3.37;;
22955;SDS011;40888;48.148;11.526;2024-02-04T04:02:24;3.83;;;3.47;;
22955;SDS011;40888;48.148;11.526;2024-02-04T04:04:50;4.40;;;4.00;;
22955;SDS011;40888;48.148;11.526;2024-02-04T04:07:16;4.00;;;3.70;;
22955;SDS011;40888;48.148;11.526;2024-02-04T04:09:42;4.10;;;3.73;;
22955;SDS011;40888;48.148;11.526;2024-02-04T04:12:08;4.60;;;4.20;;
22955;SDS011;40888;48.148;11.526;2024-02-04T04:14:34;4.00;;;3.70;;
22955;SDS011;40888;48.148;11.526;2024-02-04T04:17:00;3.00;;;2.80;;
22955;SDS011;40888;48.148;11.526;2024-02-04T04:19:26;3.63;;;3.33;;
22955;SDS011;40888;48.148;11.526;2024-02-04T04:21:52;3.97;;;3.60;;
22955;SDS011;40888;48.148;11.526;2024-02-04T04:24:19;3.67;;;3.37;;
22955;SDS011;40888;48.148;11.526;2024-02-04T04:26:47;3.60;;;3.30;;
22955;SDS011;40888;48.148;11.526;2024-02-04T04:29:13;3.40;;;3.10;;
22955;SDS011;40888;48.148;11.526;2024-02-04T04:31:39;3.67;;;3.37;;
22955;SDS011;40888;48.148;11.526;2024-02-04T04:34:05;3.77;;;3.47;;
22955;SDS011;40888;48.148;11.526;2024-02-04T04:36:31;4.10;;;3.77;;
22955;SDS011;40888;48.148;11.526;2024-02-04T04:38:57;4.43;;;3.80;;
22955;SDS011;40888;48.148;11.526;2024-02-04T04:41:23;3.80;;;3.50;;
22955;SDS011;40888;48.148;11.526;2024-02-04T04:43:49;3.70;;;3.40;;
22955;SDS011;40888;48.148;11.526;2024-02-04T04:46:15;3.60;;;3.30;;
22955;SDS011;40888;48.148;11.526;2024-02-04T04:48:41;3.57;;;3.27;;
22955;SDS011;40888;48.148;11.526;2024-02-04T04:51:08;3.03;;;2.80;;
22955;SDS011;40888;48.148;11.526;2024-02-04T04:53:34;4.20;;;3.23;;
22955;SDS011;40888;48.148;11.526;2024-02-04T04:56:01;3.30;;;3.10;;
22955;SDS011;40888;48.148;11.526;2024-02-04T04:58:27;2.83;;;2.50;;
22955;SDS011;40888;48.148;11.526;2024-02-04T05:00:53;2.87;;;2.67;;
22955;SDS011;40888;48.148;11.526;2024-02-04T05:03:20;2.90;;;2.70;;
22955;SDS011;40888;48.148;11.526;2024-02-04T05:05:46;2.90;;;2.70;;
22955;SDS011;40888;48.148;11.526;2024-02-04T05:10:42;2.93;;;2.50;;
22955;SDS011;40888;48.148;11.526;2024-02-04T05:13:08;3.83;;;2.80;;
22955;SDS011;40888;48.148;11.526;2024-02-04T05:15:34;3.70;;;2.37;;
22955;SDS011;40888;48.148;11.526;2024-02-04T05:18:00;2.50;;;2.30;;
22955;SDS011;40888;48.148;11.526;2024-02-04T05:20:26;3.30;;;2.63;;
22955;SDS011;40888;48.148;11.526;2024-02-04T05:22:53;2.40;;;2.20;;
22955;SDS011;40888;48.148;11.526;2024-02-04T05:25:20;2.50;;;2.30;;
22955;SDS011;40888;48.148;11.526;2024-02-04T05:27:46;3.87;;;2.70;;
22955;SDS011;40888;48.148;11.526;2024-02-04T05:30:12;5.00;;;2.30;;
22955;SDS011;40888;48.148;11.526;2024-02-04T05:32:39;5.17;;;2.60;;
22955;SDS011;40888;48.148;11.526;2024-02-04T05:35:07;5.73;;;2.70;;
22955;SDS011;40888;48.148;11.526;2024-02-04T05:37:33;4.07;;;2.60;;
22955;SDS011;40888;48.148;11.526;2024-02-04T05:39:59;2.77;;;2.50;;
22955;SDS011;40888;48.148;11.526;2024-02-04T05:42:25;2.93;;;2.40;;
22955;SDS011;40888;48.148;11.526;2024-02-04T05:44:51;3.27;;;2.60;;
22955;SDS011;40888;48.148;11.526;2024-02-04T05:47:19;5.43;;;3.23;;
22955;SDS011;40888;48.148;11.526;2024-02-04T05:49:45;8.30;;;3.30;;
22955;SDS011;40888;48.148;11.526;2024-02-04T05:52:11;3.80;;;3.40;;
22955;SDS011;40888;48.148;11.526;2024-02-04T05:54:39;5.13;;;3.80;;
22955;SDS011;40888;48.148;11.526;2024-02-04T05:57:05;6.63;;;3.57;;
22955;SDS011;40888;48.148;11.526;2024-02-04T05:59:32;3.87;;;3.50;;
22955;SDS011;40888;48.148;11.526;2024-02-04T06:01:58;4.70;;;3.73;;
22955;SDS011;40888;48.148;11.526;2024-02-04T06:04:24;5.70;;;4.00;;
22955;SDS011;40888;48.148;11.526;2024-02-04T06:06:50;4.30;;;3.80;;
22955;SDS011;40888;48.148;11.526;2024-02-04T06:09:16;3.80;;;3.47;;
22955;SDS011;40888;48.148;11.526;2024-02-04T06:11:45;4.83;;;3.90;;
22955;SDS011;40888;48.148;11.526;2024-02-04T06:14:12;4.27;;;3.87;;
22955;SDS011;40888;48.148;11.526;2024-02-04T06:16:38;5.93;;;3.93;;
22955;SDS011;40888;48.148;11.526;2024-02-04T06:19:04;4.50;;;3.60;;
22955;SDS011;40888;48.148;11.526;2024-02-04T06:21:32;4.33;;;3.30;;
22955;SDS011;40888;48.148;11.526;2024-02-04T06:23:58;4.67;;;3.60;;
22955;SDS011;40888;48.148;11.526;2024-02-04T06:26:24;4.17;;;3.63;;
22955;SDS011;40888;48.148;11.526;2024-02-04T06:28:50;3.90;;;3.60;;
22955;SDS011;40888;48.148;11.526;2024-02-04T06:31:16;4.27;;;3.70;;
22955;SDS011;40888;48.148;11.526;2024-02-04T06:33:43;4.73;;;3.67;;
22955;SDS011;40888;48.148;11.526;2024-02-04T06:36:09;5.73;;;3.67;;
22955;SDS011;40888;48.148;11.526;2024-02-04T06:38:35;5.73;;;4.07;;
22955;SDS011;40888;48.148;11.526;2024-02-04T06:41:02;3.60;;;3.30;;
22955;SDS011;40888;48.148;11.526;2024-02-04T06:43:28;5.43;;;3.87;;
22955;SDS011;40888;48.148;11.526;2024-02-04T06:45:54;4.93;;;3.73;;
22955;SDS011;40888;48.148;11.526;2024-02-04T06:48:20;4.53;;;4.03;;
22955;SDS011;40888;48.148;11.526;2024-02-04T06:50:46;7.90;;;4.03;;
22955;SDS011;40888;48.148;11.526;2024-02-04T06:53:15;4.40;;;4.00;;
22955;SDS011;40888;48.148;11.526;2024-02-04T06:55:41;5.93;;;4.03;;
22955;SDS011;40888;48.148;11.526;2024-02-04T06:58:07;7.27;;;4.30;;
22955;SDS011;40888;48.148;11.526;2024-02-04T07:00:33;6.03;;;4.40;;
22955;SDS011;40888;48.148;11.526;2024-02-04T07:02:59;5.17;;;4.67;;
22955;SDS011;40888;48.148;11.526;2024-02-04T07:05:25;5.87;;;4.80;;
22955;SDS011;40888;48.148;11.526;2024-02-04T07:07:52;6.30;;;4.50;;
22955;SDS011;40888;48.148;11.526;2024-02-04T07:10:18;7.13;;;4.87;;
22955;SDS011;40888;48.148;11.526;2024-02-04T07:12:44;6.40;;;4.63;;
22955;SDS011;40888;48.148;11.526;2024-02-04T07:15:10;6.33;;;4.60;;
22955;SDS011;40888;48.148;11.526;2024-02-04T07:17:36;6.23;;;4.67;;
22955;SDS011;40888;48.148;11.526;2024-02-04T07:20:02;7.33;;;4.70;;
22955;SDS011;40888;48.148;11.526;2024-02-04T07:22:28;6.33;;;5.43;;
22955;SDS011;40888;48.148;11.526;2024-02-04T07:24:54;6.57;;;5.47;;
22955;SDS011;40888;48.148;11.526;2024-02-04T07:27:20;10.43;;;5.70;;
22955;SDS011;40888;48.148;11.526;2024-02-04T07:29:46;7.10;;;5.93;;
22955;SDS011;40888;48.148;11.526;2024-02-04T07:32:13;8.10;;;5.33;;
22955;SDS011;40888;48.148;11.526;2024-02-04T07:34:40;8.07;;;5.97;;
22955;SDS011;40888;48.148;11.526;2024-02-04T07:37:06;10.00;;;6.37;;
22955;SDS011;40888;48.148;11.526;2024-02-04T07:39:32;7.93;;;6.10;;
22955;SDS011;40888;48.148;11.526;2024-02-04T07:41:58;6.97;;;5.73;;
22955;SDS011;40888;48.148;11.526;2024-02-04T07:44:26;9.27;;;6.00;;
22955;SDS011;40888;48.148;11.526;2024-02-04T07:46:52;9.67;;;6.10;;
22955;SDS011;40888;48.148;11.526;2024-02-04T07:49:18;6.63;;;5.83;;
22955;SDS011;40888;48.148;11.526;2024-02-04T07:51:44;8.13;;;5.60;;
22955;SDS011;40888;48.148;11.526;2024-02-04T07:54:10;9.37;;;5.50;;
22955;SDS011;40888;48.148;11.526;2024-02-04T07:56:36;9.53;;;6.17;;
22955;SDS011;40888;48.148;11.526;2024-02-04T07:59:02;6.80;;;5.07;;
22955;SDS011;40888;48.148;11.526;2024-02-04T08:01:29;6.43;;;5.63;;
22955;SDS011;40888;48.148;11.526;2024-02-04T08:03:55;9.43;;;5.93;;
22955;SDS011;40888;48.148;11.526;2024-02-04T08:06:21;8.73;;;5.80;;
22955;SDS011;40888;48.148;11.526;2024-02-04T08:08:47;7.23;;;4.67;;
22955;SDS011;40888;48.148;11.526;2024-02-04T08:11:17;6.27;;;4.73;;
22955;SDS011;40888;48.148;11.526;2024-02-04T08:13:44;6.20;;;4.60;;
22955;SDS011;40888;48.148;11.526;2024-02-04T08:16:12;7.10;;;4.20;;
22955;SDS011;40888;48.148;11.526;2024-02-04T08:18:38;6.20;;;4.80;;
22955;SDS011;40888;48.148;11.526;2024-02-04T08:21:04;8.80;;;3.97;;
22955;SDS011;40888;48.148;11.526;2024-02-04T08:23:30;4.83;;;4.33;;
22955;SDS011;40888;48.148;11.526;2024-02-04T08:25:56;7.23;;;4.20;;
22955;SDS011;40888;48.148;11.526;2024-02-04T08:28:24;7.67;;;4.30;;
22955;SDS011;40888;48.148;11.526;2024-02-04T08:30:50;5.10;;;3.83;;
22955;SDS011;40888;48.148;11.526;2024-02-04T08:33:16;6.67;;;3.90;;
22955;SDS011;40888;48.148;11.526;2024-02-04T08:35:43;5.60;;;3.77;;
22955;SDS011;40888;48.148;11.526;2024-02-04T08:38:09;4.97;;;3.67;;
22955;SDS011;40888;48.148;11.526;2024-02-04T08:40:35;8.33;;;3.47;;
22955;SDS011;40888;48.148;11.526;2024-02-04T08:43:01;6.70;;;3.80;;
22955;SDS011;40888;48.148;11.526;2024-02-04T08:45:28;7.67;;;3.63;;
22955;SDS011;40888;48.148;11.526;2024-02-04T08:47:54;5.63;;;3.70;;
22955;SDS011;40888;48.148;11.526;2024-02-04T08:50:20;4.60;;;3.50;;
22955;SDS011;40888;48.148;11.526;2024-02-04T08:52:46;6.87;;;3.67;;
22955;SDS011;40888;48.148;11.526;2024-02-04T08:55:12;7.13;;;3.40;;
22955;SDS011;40888;48.148;11.526;2024-02-04T08:57:38;6.97;;;4.00;;
22955;SDS011;40888;48.148;11.526;2024-02-04T09:00:05;5.40;;;3.63;;
22955;SDS011;40888;48.148;11.526;2024-02-04T09:02:36;5.57;;;3.67;;
22955;SDS011;40888;48.148;11.526;2024-02-04T09:05:03;7.30;;;4.07;;
22955;SDS011;40888;48.148;11.526;2024-02-04T09:12:30;9.37;;;4.43;;
22955;SDS011;40888;48.148;11.526;2024-02-04T09:14:57;7.77;;;4.27;;
22955;SDS011;40888;48.148;11.526;2024-02-04T09:19:53;4.13;;;3.73;;
22955;SDS011;40888;48.148;11.526;2024-02-04T09:22:19;5.00;;;3.67;;
22955;SDS011;40888;48.148;11.526;2024-02-04T09:24:45;7.20;;;3.77;;
22955;SDS011;40888;48.148;11.526;2024-02-04T09:27:11;5.33;;;3.97;;
22955;SDS011;40888;48.148;11.526;2024-02-04T09:29:37;4.70;;;3.20;;
22955;SDS011;40888;48.148;11.526;2024-02-04T09:32:03;3.87;;;3.00;;
22955;SDS011;40888;48.148;11.526;2024-02-04T09:34:30;6.57;;;3.40;;
22955;SDS011;40888;48.148;11.526;2024-02-04T09:36:56;7.47;;;3.60;;
22955;SDS011;40888;48.148;11.526;2024-02-04T09:39:22;5.07;;;3.70;;
22955;SDS011;40888;48.148;11.526;2024-02-04T09:41:48;5.33;;;3.17;;
22955;SDS011;40888;48.148;11.526;2024-02-04T09:44:14;7.03;;;3.33;;
22955;SDS011;40888;48.148;11.526;2024-02-04T09:46:41;6.30;;;3.97;;
22955;SDS011;40888;48.148;11.526;2024-02-04T09:49:07;6.03;;;3.80;;
22955;SDS011;40888;48.148;11.526;2024-02-04T09:51:34;8.23;;;3.20;;
22955;SDS011;40888;48.148;11.526;2024-02-04T09:54:02;5.43;;;3.60;;
22955;SDS011;40888;48.148;11.526;2024-02-04T09:56:31;5.20;;;3.70;;
22955;SDS011;40888;48.148;11.526;2024-02-04T09:58:57;6.37;;;3.50;;
22955;SDS011;40888;48.148;11.526;2024-02-04T10:01:23;5.70;;;3.40;;
22955;SDS011;40888;48.148;11.526;2024-02-04T10:03:49;9.93;;;4.37;;
22955;SDS011;40888;48.148;11.526;2024-02-04T10:06:15;6.33;;;3.83;;
22955;SDS011;40888;48.148;11.526;2024-02-04T10:08:41;6.03;;;4.00;;
22955;SDS011;40888;48.148;11.526;2024-02-04T10:11:09;6.07;;;3.73;;
22955;SDS011;40888;48.148;11.526;2024-02-04T10:13:42;4.53;;;3.57;;
22955;SDS011;40888;48.148;11.526;2024-02-04T10:16:08;8.70;;;4.30;;
22955;SDS011;40888;48.148;11.526;2024-02-04T10:18:34;6.53;;;3.90;;
22955;SDS011;40888;48.148;11.526;2024-02-04T10:21:00;6.40;;;3.70;;
22955;SDS011;40888;48.148;11.526;2024-02-04T10:23:26;7.57;;;3.90;;
22955;SDS011;40888;48.148;11.526;2024-02-04T10:25:59;6.07;;;3.43;;
22955;SDS011;40888;48.148;11.526;2024-02-04T10:28:25;4.27;;;3.67;;
22955;SDS011;40888;48.148;11.526;2024-02-04T10:30:52;6.03;;;3.77;;
22955;SDS011;40888;48.148;11.526;2024-02-04T10:33:18;8.23;;;4.07;;
22955;SDS011;40888;48.148;11.526;2024-02-04T10:35:44;6.03;;;3.80;;
22955;SDS011;40888;48.148;11.526;2024-02-04T10:38:10;6.80;;;4.60;;
22955;SDS011;40888;48.148;11.526;2024-02-04T10:40:36;7.13;;;4.07;;
22955;SDS011;40888;48.148;11.526;2024-02-04T10:43:03;6.93;;;3.83;;
22955;SDS011;40888;48.148;11.526;2024-02-04T10:45:32;5.87;;;3.67;;
22955;SDS011;40888;48.148;11.526;2024-02-04T10:48:00;4.77;;;3.47;;
22955;SDS011;40888;48.148;11.526;2024-02-04T10:50:27;8.87;;;3.57;;
22955;SDS011;40888;48.148;11.526;2024-02-04T10:52:55;5.90;;;3.40;;
22955;SDS011;40888;48.148;11.526;2024-02-04T10:55:26;5.77;;;3.80;;
22955;SDS011;40888;48.148;11.526;2024-02-04T10:57:53;4.60;;;3.53;;
22955;SDS011;40888;48.148;11.526;2024-02-04T11:00:20;5.00;;;3.80;;
22955;SDS011;40888;48.148;11.526;2024-02-04T11:02:46;4.83;;;3.30;;
22955;SDS011;40888;48.148;11.526;2024-02-04T11:05:14;5.17;;;3.03;;
22955;SDS011;40888;48.148;11.526;2024-02-04T11:07:44;4.17;;;3.60;;
22955;SDS011;40888;48.148;11.526;2024-02-04T11:10:10;4.30;;;3.27;;
22955;SDS011;40888;48.148;11.526;2024-02-04T11:12:36;4.43;;;2.93;;
22955;SDS011;40888;48.148;11.526;2024-02-04T11:15:04;2.97;;;2.33;;
22955;SDS011;40888;48.148;11.526;2024-02-04T11:17:51;5.20;;;2.27;;
22955;SDS011;40888;48.148;11.526;2024-02-04T11:20:37;2.57;;;2.10;;
22955;SDS011;40888;48.148;11.526;2024-02-04T11:28:13;2.53;;;1.53;;
22955;SDS011;40888;48.148;11.526;2024-02-04T11:30:42;1.70;;;1.60;;
22955;SDS011;40888;48.148;11.526;2024-02-04T11:33:10;3.93;;;1.80;;
22955;SDS011;40888;48.148;11.526;2024-02-04T11:35:36;4.43;;;2.00;;
22955;SDS011;40888;48.148;11.526;2024-02-04T11:38:03;2.70;;;1.80;;
22955;SDS011;40888;48.148;11.526;2024-02-04T11:40:35;4.00;;;2.13;;
22955;SDS011;40888;48.148;11.526;2024-02-04T11:43:05;2.57;;;1.73;;
22955;SDS011;40888;48.148;11.526;2024-02-04T11:45:32;5.47;;;1.70;;
22955;SDS011;40888;48.148;11.526;2024-02-04T11:48:01;1.83;;;1.67;;
22955;SDS011;40888;48.148;11.526;2024-02-04T11:50:30;4.07;;;2.03;;
22955;SDS011;40888;48.148;11.526;2024-02-04T11:53:06;2.53;;;1.30;;
22955;SDS011;40888;48.148;11.526;2024-02-04T11:55:34;2.87;;;1.60;;
22955;SDS011;40888;48.148;11.526;2024-02-04T11:58:01;2.20;;;1.50;;
22955;SDS011;40888;48.148;11.526;2024-02-04T12:00:27;3.20;;;1.93;;
22955;SDS011;40888;48.148;11.526;2024-02-04T12:03:06;3.20;;;1.40;;
22955;SDS011;40888;48.148;11.526;2024-02-04T12:05:35;2.33;;;1.57;;
22955;SDS011;40888;48.148;11.526;2024-02-04T12:08:03;4.20;;;1.50;;
22955;SDS011;40888;48.148;11.526;2024-02-04T12:10:33;1.53;;;1.40;;
22955;SDS011;40888;48.148;11.526;2024-02-04T12:13:03;1.80;;;1.37;;
22955;SDS011;40888;48.148;11.526;2024-02-04T12:15:30;3.13;;;1.60;;
22955;SDS011;40888;48.148;11.526;2024-02-04T12:18:04;3.83;;;1.80;;
22955;SDS011;40888;48.148;11.526;2024-02-04T12:20:32;2.47;;;1.47;;
22955;SDS011;40888;48.148;11.526;2024-02-04T12:22:58;3.17;;;1.43;;
22955;SDS011;40888;48.148;11.526;2024-02-04T12:25:24;1.47;;;1.33;;
22955;SDS011;40888;48.148;11.526;2024-02-04T12:27:52;3.03;;;1.60;;
22955;SDS011;40888;48.148;11.526;2024-02-04T12:30:18;4.33;;;1.80;;
22955;SDS011;40888;48.148;11.526;2024-02-04T12:32:55;1.53;;;1.43;;
22955;SDS011;40888;48.148;11.526;2024-02-04T12:35:21;2.10;;;1.37;;
22955;SDS011;40888;48.148;11.526;2024-02-04T12:37:51;1.87;;;1.40;;
22955;SDS011;40888;48.148;11.526;2024-02-04T12:40:24;3.00;;;1.40;;
22955;SDS011;40888;48.148;11.526;2024-02-04T12:45:23;5.40;;;1.40;;
22955;SDS011;40888;48.148;11.526;2024-02-04T12:47:50;1.17;;;1.00;;
22955;SDS011;40888;48.148;11.526;2024-02-04T12:50:16;1.30;;;1.20;;
22955;SDS011;40888;48.148;11.526;2024-02-04T12:52:44;5.17;;;1.77;;
22955;SDS011;40888;48.148;11.526;2024-02-04T12:55:19;2.40;;;1.60;;
22955;SDS011;40888;48.148;11.526;2024-02-04T12:57:45;3.87;;;1.60;;
22955;SDS011;40888;48.148;11.526;2024-02-04T13:00:11;3.17;;;1.30;;
22955;SDS011;40888;48.148;11.526;2024-02-04T13:02:38;2.70;;;1.30;;
22955;SDS011;40888;48.148;11.526;2024-02-04T13:05:05;2.20;;;1.63;;
22955;SDS011;40888;48.148;11.526;2024-02-04T13:07:31;3.40;;;1.40;;
22955;SDS011;40888;48.148;11.526;2024-02-04T13:09:57;2.47;;;1.23;;
22955;SDS011;40888;48.148;11.526;2024-02-04T13:12:24;2.73;;;1.30;;
22955;SDS011;40888;48.148;11.526;2024-02-04T13:14:51;5.43;;;1.77;;
22955;SDS011;40888;48.148;11.526;2024-02-04T13:17:17;1.73;;;1.50;;
22955;SDS011;40888;48.148;11.526;2024-02-04T13:19:43;4.43;;;1.70;;
22955;SDS011;40888;48.148;11.526;2024-02-04T13:22:09;1.83;;;1.20;;
22955;SDS011;40888;48.148;11.526;2024-02-04T13:24:35;2.80;;;1.23;;
22955;SDS011;40888;48.148;11.526;2024-02-04T13:27:01;2.70;;;1.40;;
22955;SDS011;40888;48.148;11.526;2024-02-04T13:29:32;3.53;;;1.40;;
22955;SDS011;40888;48.148;11.526;2024-02-04T13:31:58;3.20;;;1.83;;
22955;SDS011;40888;48.148;11.526;2024-02-04T13:34:24;2.43;;;1.40;;
22955;SDS011;40888;48.148;11.526;2024-02-04T13:36:50;2.07;;;1.60;;
22955;SDS011;40888;48.148;11.526;2024-02-04T13:39:17;1.93;;;1.30;;
22955;SDS011;40888;48.148;11.526;2024-02-04T13:41:43;2.80;;;1.80;;
22955;SDS011;40888;48.148;11.526;2024-02-04T13:44:09;2.97;;;1.80;;
22955;SDS011;40888;48.148;11.526;2024-02-04T13:46:35;5.73;;;1.70;;
22955;SDS011;40888;48.148;11.526;2024-02-04T13:49:04;1.73;;;1.40;;
22955;SDS011;40888;48.148;11.526;2024-02-04T13:51:31;2.93;;;1.70;;
22955;SDS011;40888;48.148;11.526;2024-02-04T13:53:57;2.10;;;1.70;;
22955;SDS011;40888;48.148;11.526;2024-02-04T13:56:23;4.27;;;1.73;;
22955;SDS011;40888;48.148;11.526;2024-02-04T13:58:49;3.43;;;1.83;;
22955;SDS011;40888;48.148;11.526;2024-02-04T14:01:15;3.27;;;1.67;;
22955;SDS011;40888;48.148;11.526;2024-02-04T14:03:43;2.83;;;1.50;;
22955;SDS011;40888;48.148;11.526;2024-02-04T14:06:09;2.53;;;1.30;;
22955;SDS011;40888;48.148;11.526;2024-02-04T14:08:37;2.03;;;1.70;;
22955;SDS011;40888;48.148;11.526;2024-02-04T14:11:03;3.07;;;1.87;;
22955;SDS011;40888;48.148;11.526;2024-02-04T14:13:29;6.00;;;1.63;;
22955;SDS011;40888;48.148;11.526;2024-02-04T14:15:57;4.67;;;2.10;;
22955;SDS011;40888;48.148;11.526;2024-02-04T14:18:23;2.30;;;1.80;;
22955;SDS011;40888;48.148;11.526;2024-02-04T14:20:50;3.07;;;1.70;;
22955;SDS011;40888;48.148;11.526;2024-02-04T14:23:16;2.80;;;1.60;;
22955;SDS011;40888;48.148;11.526;2024-02-04T14:25:42;2.50;;;1.30;;
22955;SDS011;40888;48.148;11.526;2024-02-04T14:28:10;4.43;;;2.37;;
22955;SDS011;40888;48.148;11.526;2024-02-04T14:30:36;1.97;;;1.47;;
22955;SDS011;40888;48.148;11.526;2024-02-04T14:33:02;3.97;;;1.70;;
22955;SDS011;40888;48.148;11.526;2024-02-04T14:35:28;3.50;;;1.60;;
22955;SDS011;40888;48.148;11.526;2024-02-04T14:37:55;3.63;;;1.63;;
22955;SDS011;40888;48.148;11.526;2024-02-04T14:40:21;3.20;;;1.83;;
22955;SDS011;40888;48.148;11.526;2024-02-04T14:42:47;2.83;;;1.33;;
22955;SDS011;40888;48.148;11.526;2024-02-04T14:45:13;3.73;;;2.00;;
22955;SDS011;40888;48.148;11.526;2024-02-04T14:50:10;3.67;;;1.93;;
22955;SDS011;40888;48.148;11.526;2024-02-04T14:52:38;3.43;;;1.60;;
22955;SDS011;40888;48.148;11.526;2024-02-04T14:55:04;4.00;;;1.80;;